Time;durP1;ratioP1;P1;durP2;ratioP2;P2;SDS_P1;SDS_P2;PMS_P1;PMS_P2;Temp;Humidity;BMP_temperature;BMP_pressure;BME280_temperature;BME280_humidity;BME280_pressure;Samples;Min_cycle;Max_cycle;Signal;HPM_P1;HPM_P2
2024/01/08 00:01:35;;;;;;;7.20;5.13;;;-2.10;1.00;;;;;;4999558;28;20505;-64
2024/01/08 00:04:03;;;;;;;6.93;5.17;;;-2.10;1.00;;;;;;4999236;28;20461;-64
2024/01/08 00:06:30;;;;;;;6.53;5.10;;;-2.10;1.00;;;;;;4998887;28;20497;-64
2024/01/08 00:08:59;;;;;;;6.60;5.00;;;-2.10;1.00;;;;;;4999274;28;20468;-64
2024/01/08 00:11:27;;;;;;;7.67;5.37;;;-2.10;1.00;;;;;;4999141;28;20520;-64
2024/01/08 00:13:56;;;;;;;7.10;4.80;;;-2.20;1.00;;;;;;4999320;28;20465;-64
2024/01/08 00:16:24;;;;;;;6.70;5.63;;;-2.20;1.00;;;;;;4998971;28;20808;-63
2024/01/08 00:18:51;;;;;;;8.80;6.57;;;-2.20;1.00;;;;;;4998504;28;20556;-64
2024/01/08 00:21:19;;;;;;;7.50;5.60;;;-2.10;1.00;;;;;;4999099;28;20496;-64
2024/01/08 00:23:46;;;;;;;7.80;5.40;;;-2.20;1.00;;;;;;4998986;28;20462;-64
2024/01/08 00:26:14;;;;;;;13.00;6.30;;;-2.20;1.00;;;;;;4998339;28;20566;-64
2024/01/08 00:28:41;;;;;;;9.43;6.40;;;-2.20;1.00;;;;;;4998665;28;20464;-64
2024/01/08 00:31:10;;;;;;;9.30;6.87;;;-2.20;1.00;;;;;;4998795;28;20465;-64
2024/01/08 00:33:37;;;;;;;10.50;7.87;;;-2.20;1.00;;;;;;4998897;28;20465;-63
2024/01/08 00:36:05;;;;;;;8.77;6.40;;;-2.20;1.00;;;;;;4997690;28;20900;-64
2024/01/08 00:38:33;;;;;;;10.90;7.27;;;-2.20;1.00;;;;;;4998145;28;20519;-64
2024/01/08 00:41:00;;;;;;;9.93;5.20;;;-2.20;1.00;;;;;;4998531;28;20479;-65
2024/01/08 00:43:28;;;;;;;10.77;7.57;;;-2.30;1.00;;;;;;4998757;28;20798;-64
2024/01/08 00:45:55;;;;;;;8.00;5.97;;;-2.30;1.00;;;;;;4996958;28;20563;-64
2024/01/08 00:48:24;;;;;;;8.80;6.13;;;-2.40;1.00;;;;;;4997823;28;20457;-64
2024/01/08 00:50:53;;;;;;;9.37;6.50;;;-2.40;1.00;;;;;;4998372;28;20888;-63
2024/01/08 00:53:21;;;;;;;8.40;6.70;;;-2.30;1.00;;;;;;4998647;28;20482;-64
2024/01/08 00:55:48;;;;;;;7.80;6.10;;;-2.40;1.00;;;;;;4998700;28;20850;-64
2024/01/08 00:58:16;;;;;;;8.63;6.00;;;-2.40;1.00;;;;;;4998511;28;20453;-64
2024/01/08 01:00:44;;;;;;;9.40;6.30;;;-2.40;1.00;;;;;;4998136;28;20492;-64
2024/01/08 01:03:14;;;;;;;8.57;6.20;;;-2.40;1.00;;;;;;4998351;28;20880;-63
2024/01/08 01:05:43;;;;;;;7.00;5.33;;;-2.40;1.00;;;;;;4998227;28;20759;-63
2024/01/08 01:08:11;;;;;;;8.17;5.70;;;-2.40;1.00;;;;;;4998709;28;20496;-64
2024/01/08 01:10:38;;;;;;;8.00;5.90;;;-2.40;1.00;;;;;;4998190;28;20519;-64
2024/01/08 01:13:06;;;;;;;9.80;6.63;;;-2.50;1.00;;;;;;4998365;28;20461;-64
2024/01/08 01:15:33;;;;;;;8.17;6.30;;;-2.50;1.00;;;;;;4998405;28;20461;-64
2024/01/08 01:18:00;;;;;;;7.50;6.20;;;-2.40;1.00;;;;;;4998047;28;20774;-63
2024/01/08 01:20:28;;;;;;;7.40;5.90;;;-2.40;1.00;;;;;;4998160;28;20489;-63
2024/01/08 01:22:57;;;;;;;8.10;5.87;;;-2.40;1.00;;;;;;4997477;28;20740;-64
2024/01/08 01:25:24;;;;;;;10.07;7.53;;;-2.40;1.00;;;;;;4997722;28;20488;-63
2024/01/08 01:27:51;;;;;;;7.37;6.00;;;-2.50;1.00;;;;;;4997667;28;20938;-63
2024/01/08 01:30:19;;;;;;;7.60;5.73;;;-2.50;1.00;;;;;;4996066;28;20757;-64
2024/01/08 01:32:46;;;;;;;9.30;6.87;;;-2.50;1.00;;;;;;4997768;28;20497;-63
2024/01/08 01:35:15;;;;;;;7.80;6.43;;;-2.50;1.00;;;;;;4998011;28;20957;-64
2024/01/08 01:37:42;;;;;;;9.00;6.80;;;-2.50;1.00;;;;;;4997701;28;20894;-64
2024/01/08 01:40:12;;;;;;;8.97;6.50;;;-2.50;1.00;;;;;;4996732;28;20467;-64
2024/01/08 01:42:40;;;;;;;8.90;6.90;;;-2.40;1.00;;;;;;4996247;28;20504;-64
2024/01/08 01:45:08;;;;;;;9.33;7.40;;;-2.40;1.00;;;;;;4996441;28;20744;-64
2024/01/08 01:47:37;;;;;;;7.07;5.97;;;-2.60;1.00;;;;;;4999055;28;20950;-64
2024/01/08 01:50:06;;;;;;;9.83;6.73;;;-2.60;1.00;;;;;;4999787;28;20504;-64
2024/01/08 01:52:33;;;;;;;10.77;6.40;;;-2.50;1.00;;;;;;5000403;28;20440;-64
2024/01/08 01:55:01;;;;;;;8.10;6.47;;;-2.70;1.00;;;;;;5002124;28;20496;-63
2024/01/08 01:57:30;;;;;;;10.17;6.87;;;-2.70;1.00;;;;;;5002017;28;20461;-64
2024/01/08 01:59:57;;;;;;;8.50;7.30;;;-2.80;1.00;;;;;;5001884;28;20465;-64
2024/01/08 02:02:27;;;;;;;8.87;7.20;;;-2.80;1.00;;;;;;5001368;28;20460;-64
2024/01/08 02:04:56;;;;;;;7.73;6.57;;;-2.90;1.00;;;;;;5001751;28;20468;-63
2024/01/08 02:07:23;;;;;;;8.50;7.10;;;-2.90;1.00;;;;;;5001540;28;20503;-63
2024/01/08 02:09:51;;;;;;;11.73;7.20;;;-2.90;1.00;;;;;;5002167;28;20944;-63
2024/01/08 02:12:20;;;;;;;10.50;7.37;;;-2.80;1.00;;;;;;5001212;28;20496;-63
2024/01/08 02:14:49;;;;;;;8.47;7.57;;;-2.80;1.00;;;;;;5001630;28;20945;-64
2024/01/08 02:17:16;;;;;;;10.83;7.33;;;-2.80;1.00;;;;;;5001408;28;20491;-63
2024/01/08 02:19:44;;;;;;;8.10;6.90;;;-2.80;1.00;;;;;;5001808;28;20457;-63
2024/01/08 02:22:12;;;;;;;9.60;8.17;;;-2.70;1.00;;;;;;5001452;28;20456;-63
2024/01/08 02:24:41;;;;;;;9.20;7.90;;;-2.70;1.00;;;;;;5000844;28;20852;-64
2024/01/08 02:27:09;;;;;;;8.60;7.20;;;-2.60;1.00;;;;;;5001294;28;20496;-63
2024/01/08 02:29:36;;;;;;;8.93;7.50;;;-2.60;1.00;;;;;;5001005;28;20468;-64
2024/01/08 02:32:06;;;;;;;10.77;7.80;;;-2.60;1.00;;;;;;5001417;28;20764;-64
2024/01/08 02:34:33;;;;;;;10.63;7.70;;;-2.60;1.00;;;;;;5001354;28;20435;-64
2024/01/08 02:37:00;;;;;;;9.50;7.37;;;-2.70;1.00;;;;;;5001140;28;20457;-63
2024/01/08 02:39:28;;;;;;;11.10;8.00;;;-2.70;1.00;;;;;;5001005;28;20945;-64
2024/01/08 02:41:57;;;;;;;9.80;8.00;;;-2.60;1.00;;;;;;5001288;28;20559;-64
2024/01/08 02:44:24;;;;;;;9.37;7.47;;;-2.70;1.00;;;;;;5000919;28;20574;-63
2024/01/08 02:46:52;;;;;;;10.33;8.03;;;-2.70;1.00;;;;;;5000547;28;20584;-64
2024/01/08 02:49:19;;;;;;;10.47;7.70;;;-2.70;1.00;;;;;;5000749;28;20746;-64
2024/01/08 02:51:46;;;;;;;11.70;8.97;;;-2.70;1.00;;;;;;5001036;28;20464;-63
2024/01/08 02:54:13;;;;;;;11.27;7.90;;;-2.70;1.00;;;;;;5001141;28;20516;-64
2024/01/08 02:56:41;;;;;;;10.80;7.97;;;-2.70;1.00;;;;;;5000593;28;20432;-63
2024/01/08 02:59:10;;;;;;;10.10;8.43;;;-2.70;1.00;;;;;;5000091;28;20757;-64
2024/01/08 03:01:38;;;;;;;9.53;7.90;;;-2.80;1.00;;;;;;5000625;28;20969;-63
2024/01/08 03:04:06;;;;;;;16.30;10.17;;;-2.70;1.00;;;;;;5000699;28;20465;-63
2024/01/08 03:06:33;;;;;;;11.70;8.47;;;-2.80;1.00;;;;;;4999969;28;20504;-64
2024/01/08 03:09:01;;;;;;;10.97;9.07;;;-2.80;1.00;;;;;;5000573;28;20540;-64
2024/01/08 03:11:28;;;;;;;11.80;10.07;;;-2.70;5.20;;;;;;5000704;28;20461;-63
2024/01/08 03:13:56;;;;;;;11.27;9.20;;;-2.80;1.00;;;;;;4999685;28;20462;-64
2024/01/08 03:16:24;;;;;;;12.83;9.33;;;-2.80;10.20;;;;;;5000458;28;20790;-63
2024/01/08 03:18:52;;;;;;;11.83;9.60;;;-2.80;50.60;;;;;;4999911;28;20461;-63
2024/01/08 03:21:19;;;;;;;13.23;9.93;;;-2.70;85.40;;;;;;5000222;28;20466;-64
2024/01/08 03:23:46;;;;;;;11.93;9.57;;;-2.70;94.30;;;;;;5000722;28;20461;-64
2024/01/08 03:26:14;;;;;;;14.00;10.50;;;-2.70;38.40;;;;;;4999479;28;20558;-63
2024/01/08 03:28:41;;;;;;;13.13;9.70;;;-2.80;64.30;;;;;;4999760;28;20503;-64
2024/01/08 03:31:09;;;;;;;13.17;9.60;;;-2.80;98.50;;;;;;5000108;28;20748;-63
2024/01/08 03:33:38;;;;;;;14.10;10.53;;;-2.80;99.90;;;;;;5000389;28;20457;-63
2024/01/08 03:36:10;;;;;;;13.90;10.70;;;-2.70;99.90;;;;;;5000266;28;20548;-63
2024/01/08 03:38:37;;;;;;;11.97;9.73;;;-2.80;99.90;;;;;;4999607;28;20461;-63
2024/01/08 03:41:05;;;;;;;12.10;10.30;;;-2.80;99.90;;;;;;4999924;28;20461;-63
2024/01/08 03:43:32;;;;;;;15.30;10.87;;;-2.70;99.90;;;;;;4999885;28;20534;-63
2024/01/08 03:45:59;;;;;;;11.67;9.10;;;-2.80;99.90;;;;;;4999840;28;20512;-64
2024/01/08 03:48:27;;;;;;;15.17;10.67;;;-2.70;99.90;;;;;;4999281;28;20588;-64
2024/01/08 03:50:56;;;;;;;13.10;10.13;;;-2.70;99.90;;;;;;4999696;28;20512;-63
2024/01/08 03:53:23;;;;;;;13.67;11.27;;;-2.70;99.90;;;;;;4999788;28;20816;-64
2024/01/08 03:55:50;;;;;;;13.30;10.30;;;-2.70;99.90;;;;;;4999726;28;20540;-63
2024/01/08 03:58:17;;;;;;;16.83;11.50;;;-2.60;99.90;;;;;;4999831;28;20548;-63
2024/01/08 04:00:44;;;;;;;13.00;10.80;;;-2.60;99.90;;;;;;4999205;28;20926;-64
2024/01/08 04:03:13;;;;;;;13.10;10.43;;;-2.60;99.90;;;;;;4999446;28;20487;-64
2024/01/08 04:05:40;;;;;;;14.27;9.70;;;-2.60;99.90;;;;;;4999355;28;20566;-63
2024/01/08 04:08:09;;;;;;;11.70;9.13;;;-2.70;99.90;;;;;;4999687;28;20595;-64
2024/01/08 04:10:37;;;;;;;13.23;10.17;;;-2.70;99.90;;;;;;4998985;28;20543;-64
2024/01/08 04:13:05;;;;;;;15.73;10.30;;;-2.80;99.90;;;;;;4999032;28;20473;-64
2024/01/08 04:15:32;;;;;;;12.50;9.00;;;-2.70;99.90;;;;;;4999223;28;20468;-64
2024/01/08 04:17:59;;;;;;;15.30;10.20;;;-2.70;99.90;;;;;;4999041;28;20523;-63
2024/01/08 04:20:26;;;;;;;11.50;10.03;;;-2.70;1.00;;;;;;5010753;28;20894;-63
2024/01/08 04:22:54;;;;;;;11.83;9.83;;;-2.70;1.00;;;;;;5018438;28;20893;-64
2024/01/08 04:25:22;;;;;;;12.97;10.50;;;-2.70;1.00;;;;;;5018573;28;20542;-63
2024/01/08 04:27:50;;;;;;;12.80;10.47;;;-2.70;1.00;;;;;;5018721;28;20584;-64
2024/01/08 04:30:18;;;;;;;15.93;11.37;;;-2.70;1.00;;;;;;5018639;28;20460;-63
2024/01/08 04:32:45;;;;;;;14.90;11.40;;;-2.70;1.00;;;;;;5018721;28;20500;-63
2024/01/08 04:35:14;;;;;;;13.97;11.10;;;-2.70;1.00;;;;;;5018562;28;20947;-64
2024/01/08 04:37:41;;;;;;;15.03;10.97;;;-2.70;1.00;;;;;;5018654;28;20460;-63
2024/01/08 04:40:09;;;;;;;14.10;10.47;;;-2.70;99.90;;;;;;5018708;28;20500;-63
2024/01/08 04:42:38;;;;;;;11.37;9.87;;;-2.70;99.90;;;;;;5018358;28;20471;-63
2024/01/08 04:45:07;;;;;;;14.03;10.60;;;-2.70;26.50;;;;;;5018480;28;20494;-63
2024/01/08 04:47:34;;;;;;;13.30;10.40;;;-2.60;36.90;;;;;;5018369;28;20488;-63
2024/01/08 04:50:02;;;;;;;12.83;10.20;;;-2.60;99.90;;;;;;5018433;28;20464;-64
2024/01/08 04:52:30;;;;;;;14.00;10.70;;;-2.70;99.90;;;;;;5018374;28;20812;-63
2024/01/08 04:54:57;;;;;;;13.67;10.63;;;-2.70;99.90;;;;;;5017930;28;20460;-63
2024/01/08 04:57:25;;;;;;;11.90;9.60;;;-2.70;99.90;;;;;;5018418;28;20496;-63
2024/01/08 04:59:53;;;;;;;11.67;9.87;;;-2.70;99.90;;;;;;5018049;28;20924;-63
2024/01/08 05:02:21;;;;;;;14.30;10.70;;;-2.70;99.90;;;;;;5017947;28;20464;-63
2024/01/08 05:04:48;;;;;;;11.70;9.70;;;-2.70;87.10;;;;;;5018074;28;20555;-63
2024/01/08 05:07:16;;;;;;;11.83;9.17;;;-2.70;76.00;;;;;;5017946;28;20464;-64
2024/01/08 05:09:43;;;;;;;11.27;9.53;;;-2.70;56.90;;;;;;5018578;28;20470;-64
2024/01/08 05:12:10;;;;;;;10.97;9.47;;;-2.70;91.80;;;;;;5018046;28;20502;-63
2024/01/08 05:14:38;;;;;;;12.03;10.40;;;-2.60;80.10;;;;;;5017647;28;20518;-63
2024/01/08 05:17:07;;;;;;;12.50;10.87;;;-2.70;18.90;;;;;;5018271;28;20514;-63
2024/01/08 05:19:34;;;;;;;12.30;9.57;;;-2.60;12.30;;;;;;5018229;28;20460;-63
2024/01/08 05:22:01;;;;;;;12.80;10.00;;;-2.60;1.00;;;;;;5017667;28;20472;-63
2024/01/08 05:24:29;;;;;;;12.50;9.27;;;-2.60;1.00;;;;;;5017475;28;20530;-64
2024/01/08 05:26:56;;;;;;;11.87;9.87;;;-2.60;1.00;;;;;;5017382;28;20460;-63
2024/01/08 05:29:23;;;;;;;11.87;9.30;;;-2.60;1.00;;;;;;5017775;28;20543;-64
2024/01/08 05:31:51;;;;;;;12.13;9.33;;;-2.60;1.00;;;;;;5017905;28;20865;-64
2024/01/08 05:34:20;;;;;;;11.83;9.03;;;-2.60;1.00;;;;;;5017970;28;20880;-63
2024/01/08 05:36:47;;;;;;;12.30;9.67;;;-2.60;1.00;;;;;;5017425;28;20838;-64
2024/01/08 05:39:16;;;;;;;12.30;9.60;;;-2.60;1.00;;;;;;5017519;28;20460;-64
2024/01/08 05:41:43;;;;;;;12.60;9.00;;;-2.60;1.00;;;;;;5017957;28;20464;-63
2024/01/08 05:44:10;;;;;;;12.70;9.37;;;-2.60;1.00;;;;;;5011289;28;20817;-63
2024/01/08 05:46:42;;;;;;;12.33;9.90;;;-2.60;1.00;;;;;;5011030;28;20489;-64
2024/01/08 05:49:10;;;;;;;12.30;9.83;;;-2.60;1.00;;;;;;5005514;28;20552;-63
2024/01/08 05:51:39;;;;;;;11.43;9.80;;;-2.60;1.00;;;;;;5017521;28;20835;-64
2024/01/08 05:54:06;;;;;;;17.87;12.40;;;-2.60;1.00;;;;;;5017392;28;20483;-64
2024/01/08 05:56:33;;;;;;;19.13;14.33;;;-2.60;1.00;;;;;;5016871;28;20464;-64
2024/01/08 05:59:01;;;;;;;17.83;12.47;;;-2.60;1.00;;;;;;5017520;28;20490;-63
2024/01/08 06:01:28;;;;;;;18.90;16.97;;;-2.60;1.00;;;;;;5015822;28;20496;-64
2024/01/08 06:03:56;;;;;;;16.67;11.50;;;-2.50;1.00;;;;;;5015891;28;20463;-63
2024/01/08 06:06:23;;;;;;;17.30;12.50;;;-2.50;1.00;;;;;;5015662;28;20518;-63
2024/01/08 06:08:52;;;;;;;15.97;12.27;;;-2.50;1.00;;;;;;5015575;28;20493;-63
2024/01/08 12:22:48;;;;;;;5.93;4.70;;;-0.20;99.90;;;;;;4997926;28;20458;-60
2024/01/08 14:02:58;;;;;;;6.63;5.07;;;-2.10;99.90;;;;;;5020741;28;20463;-60
2024/01/08 14:05:27;;;;;;;6.90;5.13;;;-2.30;99.90;;;;;;5021058;28;20471;-60
2024/01/08 14:07:56;;;;;;;7.07;5.37;;;-2.30;99.90;;;;;;5020886;28;20897;-61
2024/01/08 14:10:26;;;;;;;6.63;5.10;;;-2.30;99.90;;;;;;5020601;28;20559;-61
2024/01/08 14:12:54;;;;;;;8.77;6.27;;;-2.30;99.90;;;;;;5020317;28;20452;-61
2024/01/08 14:15:21;;;;;;;6.70;4.83;;;-2.30;99.90;;;;;;5021091;28;20461;-61
2024/01/08 14:17:50;;;;;;;7.47;5.60;;;-2.40;99.90;;;;;;5021161;28;20461;-59
2024/01/08 14:20:19;;;;;;;7.87;5.27;;;-2.40;99.90;;;;;;5020725;28;20452;-61
2024/01/08 14:22:46;;;;;;;7.13;5.07;;;-2.40;99.90;;;;;;5020909;28;20510;-61
2024/01/08 14:25:15;;;;;;;8.60;5.80;;;-2.40;99.90;;;;;;5020268;28;20521;-60
2024/01/08 14:27:43;;;;;;;7.70;5.23;;;-2.40;99.90;;;;;;5020933;28;20561;-61
2024/01/08 14:30:12;;;;;;;9.80;6.40;;;-2.40;99.90;;;;;;5020563;28;20862;-61
2024/01/08 14:32:39;;;;;;;8.07;5.90;;;-2.50;99.90;;;;;;5020601;28;20464;-61
2024/01/08 14:35:09;;;;;;;8.60;6.73;;;-2.40;99.90;;;;;;5019915;28;20919;-60
2024/01/08 14:37:39;;;;;;;8.43;6.90;;;-2.50;99.90;;;;;;5018516;28;20752;-61
2024/01/08 14:40:09;;;;;;;9.60;6.90;;;-2.50;99.90;;;;;;5018569;28;20485;-61
2024/01/08 14:42:38;;;;;;;9.00;6.80;;;-2.50;99.90;;;;;;5019371;28;20497;-61
2024/01/08 14:45:07;;;;;;;7.43;5.37;;;-2.70;99.90;;;;;;5020446;28;20487;-61
2024/01/08 14:47:35;;;;;;;7.20;5.40;;;-2.70;99.90;;;;;;5020351;28;20719;-61
2024/01/08 14:50:04;;;;;;;7.83;5.50;;;-2.70;99.90;;;;;;5020239;28;20925;-61
2024/01/08 14:52:32;;;;;;;6.60;5.50;;;-2.80;99.90;;;;;;5017921;28;20800;-62
2024/01/08 14:55:02;;;;;;;8.93;6.73;;;-2.80;99.90;;;;;;5015912;28;20901;-58
2024/01/08 14:57:31;;;;;;;7.50;5.80;;;-2.80;99.90;;;;;;5016042;28;20462;-61
2024/01/08 15:00:00;;;;;;;8.30;6.17;;;-2.90;99.90;;;;;;5015645;28;20456;-61
2024/01/08 15:02:27;;;;;;;7.47;5.77;;;-2.90;99.90;;;;;;5015974;28;20917;-61
2024/01/08 15:04:55;;;;;;;7.30;5.80;;;-2.90;99.90;;;;;;5016551;28;20464;-61
2024/01/08 15:07:23;;;;;;;8.17;5.90;;;-2.90;99.90;;;;;;5005649;28;20456;-61
2024/01/08 15:09:50;;;;;;;8.90;5.90;;;-3.00;99.90;;;;;;5008728;28;20549;-61
2024/01/08 15:12:19;;;;;;;8.70;6.20;;;-3.00;99.90;;;;;;5008349;28;20461;-61
2024/01/08 15:14:47;;;;;;;7.70;5.73;;;-3.00;99.90;;;;;;5008196;28;20431;-61
2024/01/08 15:17:15;;;;;;;8.83;6.10;;;-3.10;99.90;;;;;;5007199;28;20457;-61
2024/01/08 15:19:42;;;;;;;10.00;7.20;;;-3.10;99.90;;;;;;5008965;28;20475;-61
2024/01/08 15:22:10;;;;;;;10.87;7.80;;;-3.10;99.90;;;;;;5010045;28;20779;-61
2024/01/08 15:24:38;;;;;;;9.37;5.60;;;-3.20;99.90;;;;;;5008361;28;20479;-61
2024/01/08 15:27:06;;;;;;;12.90;6.83;;;-3.20;99.90;;;;;;5008264;28;20769;-61
2024/01/08 15:29:35;;;;;;;12.80;6.40;;;-3.20;99.90;;;;;;5007865;28;20531;-61
2024/01/08 15:32:03;;;;;;;7.27;5.90;;;-3.20;99.90;;;;;;5008711;28;20751;-61
2024/01/08 15:34:33;;;;;;;8.53;7.20;;;-3.30;99.90;;;;;;5007762;28;20824;-61
2024/01/08 15:37:01;;;;;;;8.90;6.80;;;-3.30;99.90;;;;;;5007620;28;20921;-62
2024/01/08 15:39:29;;;;;;;8.60;6.17;;;-3.30;99.90;;;;;;5008156;28;20497;-61
2024/01/08 15:41:57;;;;;;;9.73;7.10;;;-3.30;99.90;;;;;;5008499;28;20893;-61
2024/01/08 15:44:24;;;;;;;7.50;6.20;;;-3.30;99.90;;;;;;5008625;28;20453;-61
2024/01/08 15:46:53;;;;;;;10.63;6.80;;;-3.30;99.90;;;;;;5007132;28;20452;-60
2024/01/08 15:49:20;;;;;;;8.87;6.80;;;-3.30;99.90;;;;;;4999337;28;20489;-61
2024/01/08 15:51:48;;;;;;;10.87;7.47;;;-3.30;99.90;;;;;;4999496;28;20457;-61
2024/01/08 15:54:15;;;;;;;10.27;7.97;;;-3.40;99.90;;;;;;4999153;28;20527;-61
2024/01/08 15:56:43;;;;;;;8.77;6.13;;;-3.40;99.90;;;;;;4998237;28;20460;-61
2024/01/08 15:59:11;;;;;;;8.47;6.00;;;-3.50;99.90;;;;;;4998698;28;20464;-61
2024/01/08 16:01:38;;;;;;;13.30;7.10;;;-3.50;99.90;;;;;;5015208;28;20508;-61
2024/01/08 16:04:07;;;;;;;8.97;7.43;;;-3.50;99.90;;;;;;5018259;28;20455;-61
2024/01/08 16:06:35;;;;;;;10.20;6.37;;;-3.50;99.90;;;;;;5014767;28;20479;-61
2024/01/08 16:09:05;;;;;;;10.67;7.33;;;-3.50;99.90;;;;;;4999048;28;20499;-62
2024/01/08 16:11:32;;;;;;;8.03;5.60;;;-3.50;99.90;;;;;;5006005;28;20479;-62
2024/01/08 16:14:00;;;;;;;9.43;6.60;;;-3.60;99.90;;;;;;5018567;28;20474;-61
2024/01/08 16:16:27;;;;;;;8.27;6.60;;;-3.60;99.90;;;;;;5010404;28;20477;-62
2024/01/08 16:18:55;;;;;;;9.67;6.43;;;-3.70;99.90;;;;;;5006138;28;20472;-61
2024/01/08 16:21:25;;;;;;;8.23;6.30;;;-3.70;99.90;;;;;;5001329;28;20764;-61
2024/01/08 16:23:52;;;;;;;7.70;6.07;;;-3.70;99.90;;;;;;5013814;28;20734;-61
2024/01/08 16:26:20;;;;;;;7.73;6.23;;;-3.70;99.90;;;;;;5016060;28;20530;-61
2024/01/08 16:28:47;;;;;;;8.17;5.77;;;-3.70;99.90;;;;;;5016994;28;20479;-60
2024/01/08 16:31:15;;;;;;;9.87;7.00;;;-3.80;99.90;;;;;;5017221;28;20530;-60
2024/01/08 16:33:42;;;;;;;7.73;5.87;;;-3.80;99.90;;;;;;5018834;28;20464;-61
2024/01/08 16:36:10;;;;;;;9.47;6.43;;;-3.80;99.90;;;;;;5018659;28;20467;-61
2024/01/08 16:38:40;;;;;;;8.37;6.27;;;-3.80;99.90;;;;;;5018376;28;20463;-61
2024/01/08 16:41:08;;;;;;;9.03;6.10;;;-3.80;99.90;;;;;;5006543;28;20615;-61
2024/01/08 16:43:36;;;;;;;9.50;5.97;;;-3.80;99.90;;;;;;5015794;28;20483;-61
2024/01/08 16:46:04;;;;;;;8.37;6.57;;;-3.90;99.90;;;;;;5015731;28;20552;-61
2024/01/08 16:48:31;;;;;;;9.60;7.00;;;-3.90;99.90;;;;;;5017922;28;20571;-62
2024/01/08 16:50:59;;;;;;;11.50;6.70;;;-3.90;99.90;;;;;;5016610;28;20554;-61
2024/01/08 16:53:27;;;;;;;12.27;7.23;;;-3.90;99.90;;;;;;5016108;28;20506;-61
2024/01/08 16:55:57;;;;;;;9.27;6.83;;;-4.00;99.90;;;;;;5015398;28;20971;-60
2024/01/08 16:58:24;;;;;;;10.87;6.77;;;-4.00;99.90;;;;;;5017876;28;20872;-61
2024/01/08 17:00:52;;;;;;;8.87;6.03;;;-4.00;99.90;;;;;;5014788;28;20475;-60
2024/01/08 17:03:19;;;;;;;8.70;6.40;;;-4.00;99.90;;;;;;5017471;28;20608;-61
2024/01/08 17:05:47;;;;;;;8.20;6.60;;;-4.00;99.90;;;;;;5016128;28;20449;-61
2024/01/08 17:08:14;;;;;;;9.17;6.87;;;-4.00;99.90;;;;;;5018108;28;20908;-60
2024/01/08 17:10:42;;;;;;;7.43;6.33;;;-4.00;99.90;;;;;;5015993;28;20495;-61
2024/01/08 17:13:12;;;;;;;9.60;6.87;;;-4.10;99.90;;;;;;5017564;28;20438;-63
2024/01/08 17:15:41;;;;;;;9.03;6.83;;;-4.10;99.90;;;;;;5015879;28;20569;-63
2024/01/08 17:18:08;;;;;;;12.83;9.00;;;-4.10;99.90;;;;;;5016392;28;20475;-64
2024/01/08 17:20:36;;;;;;;9.40;6.70;;;-4.20;99.90;;;;;;5014951;28;20475;-63
2024/01/08 17:23:03;;;;;;;8.47;6.20;;;-4.20;99.90;;;;;;5015023;28;20786;-61
2024/01/08 17:25:31;;;;;;;9.13;6.87;;;-4.20;99.90;;;;;;5014723;28;20468;-62
2024/01/08 17:27:58;;;;;;;8.50;6.23;;;-4.20;99.90;;;;;;5000683;28;20485;-63
2024/01/08 17:30:27;;;;;;;11.53;7.80;;;-4.20;99.90;;;;;;5004997;28;20498;-62
2024/01/08 17:32:57;;;;;;;10.00;6.47;;;-4.20;99.90;;;;;;5015371;28;20495;-63
2024/01/08 17:35:24;;;;;;;8.73;6.33;;;-4.20;99.90;;;;;;5000254;28;20557;-62
2024/01/08 17:37:52;;;;;;;8.07;6.53;;;-4.20;99.90;;;;;;5001118;28;20926;-62
2024/01/08 17:40:20;;;;;;;8.70;6.43;;;-4.20;99.90;;;;;;4997425;28;20886;-61
2024/01/08 17:42:48;;;;;;;9.50;6.63;;;-4.20;99.90;;;;;;5017042;28;20948;-63
2024/01/08 17:45:15;;;;;;;8.10;6.90;;;-4.30;99.90;;;;;;5016974;28;20505;-61
2024/01/08 17:47:45;;;;;;;8.77;6.87;;;-4.30;99.90;;;;;;5017406;28;20893;-61
2024/01/08 17:50:16;;;;;;;8.83;6.80;;;-4.30;99.90;;;;;;5017685;28;20493;-60
2024/01/08 17:52:44;;;;;;;10.13;7.60;;;-4.30;99.90;;;;;;5009026;28;20472;-60
2024/01/08 17:55:12;;;;;;;9.23;6.57;;;-4.30;99.90;;;;;;5007148;28;20463;-61
2024/01/08 17:57:39;;;;;;;10.30;6.07;;;-4.30;99.90;;;;;;5015396;28;20511;-60
2024/01/08 18:00:08;;;;;;;8.43;6.93;;;-4.40;99.90;;;;;;5017403;28;20506;-63
2024/01/08 18:02:35;;;;;;;9.93;6.77;;;-4.40;99.90;;;;;;5013842;28;20803;-60
2024/01/08 18:05:05;;;;;;;10.73;7.20;;;-4.40;99.90;;;;;;5015395;28;20940;-60
2024/01/08 18:07:32;;;;;;;10.93;7.37;;;-4.40;99.90;;;;;;5010398;28;20502;-60
2024/01/08 18:10:00;;;;;;;9.90;7.17;;;-4.50;99.90;;;;;;5017433;28;20499;-60
2024/01/08 18:12:30;;;;;;;9.63;6.57;;;-4.50;99.90;;;;;;5017068;28;20466;-60
2024/01/08 18:14:58;;;;;;;11.37;7.77;;;-4.40;99.90;;;;;;5017159;28;20796;-60
2024/01/08 18:17:26;;;;;;;8.80;6.83;;;-4.40;99.90;;;;;;5017551;28;20456;-60
2024/01/08 18:19:54;;;;;;;10.37;6.80;;;-4.50;99.90;;;;;;5017580;28;20868;-59
2024/01/08 18:22:23;;;;;;;10.27;7.17;;;-4.40;99.90;;;;;;5017022;28;20466;-60
2024/01/08 18:24:51;;;;;;;9.87;6.57;;;-4.40;99.90;;;;;;5017012;28;20737;-61
2024/01/08 18:27:18;;;;;;;11.50;8.10;;;-4.40;99.90;;;;;;5017018;28;20884;-60
2024/01/08 18:29:46;;;;;;;9.53;6.50;;;-4.50;99.90;;;;;;5019867;28;20495;-61
2024/01/08 18:32:17;;;;;;;10.00;6.57;;;-4.50;99.90;;;;;;5008323;28;20486;-61
2024/01/08 18:34:45;;;;;;;10.83;7.70;;;-4.50;99.90;;;;;;4999567;28;20472;-60
2024/01/08 18:37:12;;;;;;;10.20;6.70;;;-4.40;99.90;;;;;;5000385;28;20551;-60
2024/01/08 18:39:41;;;;;;;9.07;7.30;;;-4.50;99.90;;;;;;5000900;28;20817;-60
2024/01/08 18:42:09;;;;;;;14.27;8.40;;;-4.60;99.90;;;;;;5001026;28;20464;-60
2024/01/08 18:44:38;;;;;;;11.57;7.23;;;-4.50;99.90;;;;;;5000414;28;20482;-60
2024/01/08 18:47:06;;;;;;;10.73;7.07;;;-4.60;99.90;;;;;;5001133;28;20522;-60
2024/01/08 18:49:36;;;;;;;9.03;6.63;;;-4.70;99.90;;;;;;5000884;28;20759;-60
2024/01/08 18:52:04;;;;;;;11.40;8.40;;;-4.70;99.90;;;;;;5001092;28;20577;-60
2024/01/08 18:54:32;;;;;;;10.93;7.10;;;-4.70;99.90;;;;;;4983146;28;20502;-60
2024/01/08 18:57:04;;;;;;;9.93;7.33;;;-4.80;99.90;;;;;;5001703;28;20437;-61
2024/01/08 18:59:32;;;;;;;11.70;9.37;;;-4.80;99.90;;;;;;5000736;28;20806;-61
2024/01/08 19:01:59;;;;;;;11.47;8.40;;;-4.80;99.90;;;;;;5000434;28;20904;-61
2024/01/08 19:04:27;;;;;;;13.70;9.10;;;-4.80;99.90;;;;;;5003048;28;20733;-60
2024/01/08 19:06:55;;;;;;;12.90;8.10;;;-4.80;99.90;;;;;;4999681;28;20463;-60
2024/01/08 19:09:23;;;;;;;14.07;8.93;;;-4.90;99.90;;;;;;4999922;28;21001;-60
2024/01/08 19:11:51;;;;;;;14.20;9.20;;;-4.80;99.90;;;;;;4999994;28;20465;-59
2024/01/08 19:14:20;;;;;;;11.37;8.07;;;-4.80;99.90;;;;;;4998748;28;20534;-60
2024/01/08 19:16:48;;;;;;;10.73;7.63;;;-4.90;99.90;;;;;;4999420;28;20538;-61
2024/01/08 19:19:16;;;;;;;15.27;9.67;;;-4.90;99.90;;;;;;5000372;28;20570;-60
2024/01/08 19:21:43;;;;;;;12.60;8.50;;;-4.90;99.90;;;;;;5000595;28;20464;-60
2024/01/08 19:24:11;;;;;;;9.33;7.27;;;-4.90;99.90;;;;;;5000257;28;20476;-60
2024/01/08 19:26:38;;;;;;;10.60;8.23;;;-4.90;99.90;;;;;;4999532;28;20476;-60
2024/01/08 19:29:06;;;;;;;10.87;8.20;;;-4.80;99.90;;;;;;5000157;28;20482;-61
2024/01/08 19:31:35;;;;;;;9.90;7.90;;;-4.90;99.90;;;;;;4999812;28;20485;-61
2024/01/08 19:34:03;;;;;;;9.47;7.50;;;-4.90;99.90;;;;;;5000263;28;20811;-61
2024/01/08 19:36:31;;;;;;;10.70;8.10;;;-5.00;99.90;;;;;;4999869;28;20799;-60
2024/01/08 19:39:00;;;;;;;10.27;7.70;;;-4.90;99.90;;;;;;5007355;28;20453;-60
2024/01/08 19:41:28;;;;;;;12.03;9.20;;;-4.90;99.90;;;;;;4999529;28;20500;-60
2024/01/08 19:43:56;;;;;;;9.40;7.80;;;-4.90;99.90;;;;;;5013699;28;20462;-57
2024/01/08 19:46:23;;;;;;;10.07;7.90;;;-4.90;99.90;;;;;;5019751;28;20556;-59
2024/01/08 19:48:53;;;;;;;9.93;7.37;;;-5.00;99.90;;;;;;5019916;28;20469;-55
2024/01/08 19:51:20;;;;;;;9.40;7.03;;;-5.00;99.90;;;;;;5020063;28;20644;-56
2024/01/08 19:53:48;;;;;;;12.50;8.73;;;-5.00;99.90;;;;;;5020689;28;20949;-58
2024/01/08 19:56:15;;;;;;;10.70;8.00;;;-5.10;99.90;;;;;;5020258;28;20967;-59
2024/01/08 19:58:44;;;;;;;10.03;7.37;;;-5.10;99.90;;;;;;5020407;28;20516;-58
2024/01/08 20:01:11;;;;;;;14.13;9.23;;;-5.10;99.90;;;;;;5021241;28;20471;-58
2024/01/08 20:03:39;;;;;;;12.77;9.10;;;-5.10;99.90;;;;;;5020809;28;20549;-57
2024/01/08 20:06:08;;;;;;;11.00;8.60;;;-5.10;99.90;;;;;;5019879;28;20529;-58
2024/01/08 20:08:36;;;;;;;10.93;8.30;;;-5.10;99.90;;;;;;5020722;28;20902;-57
2024/01/08 20:11:04;;;;;;;10.57;7.50;;;-5.10;99.90;;;;;;5020680;28;20521;-57
2024/01/08 20:13:31;;;;;;;11.87;7.93;;;-5.10;99.90;;;;;;5020964;28;20513;-57
2024/01/08 20:15:59;;;;;;;15.73;7.83;;;-5.10;99.90;;;;;;5020899;28;20745;-57
2024/01/08 20:18:26;;;;;;;11.03;8.13;;;-5.10;99.90;;;;;;5020534;28;20467;-57
2024/01/08 20:21:00;;;;;;;12.73;8.10;;;-5.20;99.90;;;;;;5021174;28;20466;-57
2024/01/08 20:23:29;;;;;;;11.20;7.47;;;-5.20;99.90;;;;;;5020403;28;20510;-57
2024/01/08 20:25:57;;;;;;;10.80;8.27;;;-5.20;99.90;;;;;;5020481;28;20939;-56
2024/01/08 20:28:24;;;;;;;10.77;7.47;;;-5.20;99.90;;;;;;5019993;28;20492;-58
2024/01/08 20:30:52;;;;;;;12.27;9.00;;;-5.20;99.90;;;;;;5020009;28;20594;-58
2024/01/08 20:33:20;;;;;;;10.23;8.17;;;-5.10;99.90;;;;;;5020347;28;20797;-58
2024/01/08 20:35:47;;;;;;;9.73;7.77;;;-5.20;99.90;;;;;;5020424;28;20515;-58